createdAt,value
2023-01-22T00:01:17.797Z,2.60
2023-01-22T00:03:46.582Z,2.60
2023-01-22T00:08:40.809Z,2.38
2023-01-22T00:11:07.496Z,2.72
2023-01-22T00:13:35.437Z,2.72
2023-01-22T00:16:02.306Z,2.63
2023-01-22T00:18:29.028Z,2.58
2023-01-22T00:20:56.181Z,2.50
2023-01-22T00:23:23.302Z,2.47
2023-01-22T00:25:50.952Z,2.85
2023-01-22T00:28:17.789Z,2.60
2023-01-22T00:30:44.506Z,2.53
2023-01-22T00:33:11.526Z,2.95
2023-01-22T00:35:38.360Z,2.67
2023-01-22T00:38:06.121Z,2.00
2023-01-22T00:40:32.822Z,2.28
2023-01-22T00:42:59.588Z,2.72
2023-01-22T00:45:26.293Z,2.58
2023-01-22T00:47:53.197Z,2.65
2023-01-22T00:50:20.135Z,2.30
2023-01-22T00:52:47.079Z,2.38
2023-01-22T00:55:13.804Z,1.95
2023-01-22T00:57:40.645Z,2.40
2023-01-22T01:00:07.937Z,2.28
2023-01-22T01:02:54.768Z,2.30
2023-01-22T01:05:21.568Z,2.40
2023-01-22T01:07:48.248Z,2.40
2023-01-22T01:10:15.055Z,2.60
2023-01-22T01:12:41.875Z,2.75
2023-01-22T01:15:08.921Z,2.40
2023-01-22T01:17:36.179Z,2.35
2023-01-22T01:20:03.629Z,2.50
2023-01-22T01:22:30.350Z,2.30
2023-01-22T01:24:57.151Z,2.53
2023-01-22T01:27:23.870Z,2.38
2023-01-22T01:29:50.987Z,2.30
2023-01-22T01:32:18.104Z,1.92
2023-01-22T01:34:45.564Z,2.30
2023-01-22T01:37:12.292Z,2.20
2023-01-22T01:39:38.995Z,2.50
2023-01-22T01:42:05.824Z,2.10
2023-01-22T01:44:32.811Z,2.33
2023-01-22T01:47:06.039Z,2.15
2023-01-22T01:49:42.878Z,2.35
2023-01-22T01:52:12.496Z,2.08
2023-01-22T01:54:40.711Z,1.90
2023-01-22T01:57:15.243Z,2.22
2023-01-22T01:59:44.696Z,2.15
2023-01-22T02:04:38.249Z,1.95
2023-01-22T02:07:05.498Z,2.10
2023-01-22T02:09:33.788Z,2.38
2023-01-22T02:12:00.743Z,1.88
2023-01-22T02:14:31.207Z,2.00
2023-01-22T02:17:06.354Z,2.35
2023-01-22T02:19:33.212Z,1.83
2023-01-22T02:22:00.018Z,1.92
2023-01-22T02:24:29.649Z,2.22
2023-01-22T02:26:56.421Z,2.20
2023-01-22T02:29:23.359Z,2.20
2023-01-22T02:31:50.143Z,2.28
2023-01-22T02:34:19.350Z,2.30
2023-01-22T02:36:47.035Z,2.00
2023-01-22T02:39:15.258Z,1.80
2023-01-22T02:41:42.047Z,1.90
2023-01-22T02:44:10.626Z,1.85
2023-01-22T02:46:37.510Z,2.17
2023-01-22T02:49:04.818Z,2.03
2023-01-22T02:54:00.791Z,1.95
2023-01-22T02:56:27.678Z,2.10
2023-01-22T02:58:54.665Z,1.73
2023-01-22T03:01:24.141Z,1.83
2023-01-22T03:04:13.326Z,1.63
2023-01-22T03:06:43.240Z,1.73
2023-01-22T03:09:12.507Z,1.83
2023-01-22T03:11:41.390Z,2.03
2023-01-22T03:14:33.743Z,1.95
2023-01-22T03:17:19.331Z,1.75
2023-01-22T03:20:04.719Z,1.85
2023-01-22T03:22:31.878Z,1.55
2023-01-22T03:25:00.453Z,2.20
2023-01-22T03:27:29.662Z,1.60
2023-01-22T03:29:57.008Z,1.65
2023-01-22T03:32:24.508Z,1.88
2023-01-22T03:34:51.272Z,1.65
2023-01-22T03:37:18.517Z,1.73
2023-01-22T03:39:48.081Z,1.58
2023-01-22T03:42:25.334Z,1.77
2023-01-22T03:44:52.149Z,1.85
2023-01-22T03:47:19.038Z,1.45
2023-01-22T03:49:45.835Z,1.50
2023-01-22T03:52:12.684Z,1.90
2023-01-22T03:54:40.414Z,1.85
2023-01-22T03:57:08.829Z,1.42
2023-01-22T03:59:38.760Z,1.85
2023-01-22T04:02:05.601Z,1.88
2023-01-22T04:04:40.304Z,1.80
2023-01-22T04:07:07.724Z,1.70
2023-01-22T04:09:34.559Z,1.50
2023-01-22T04:12:03.573Z,1.63
2023-01-22T04:14:31.100Z,1.70
2023-01-22T04:17:02.277Z,1.60
2023-01-22T04:19:29.010Z,1.70
2023-01-22T04:22:12.767Z,1.70
2023-01-22T04:24:40.057Z,1.60
2023-01-22T04:27:07.105Z,1.35
2023-01-22T04:29:33.935Z,1.40
2023-01-22T04:32:00.894Z,1.42
2023-01-22T04:34:47.444Z,1.38
2023-01-22T04:37:32.353Z,1.63
2023-01-22T04:39:59.116Z,1.48
2023-01-22T04:42:27.246Z,1.38
2023-01-22T04:44:54.031Z,1.63
2023-01-22T04:47:21.535Z,1.70
2023-01-22T04:49:48.309Z,1.50
2023-01-22T04:52:16.497Z,1.40
2023-01-22T04:54:43.943Z,1.45
2023-01-22T04:57:11.679Z,1.40
2023-01-22T04:59:38.445Z,1.58
2023-01-22T05:02:05.241Z,1.30
2023-01-22T05:04:32.760Z,1.10
2023-01-22T05:06:59.459Z,1.15
2023-01-22T05:09:26.651Z,1.00
2023-01-22T05:11:57.797Z,1.70
2023-01-22T05:14:25.678Z,1.02
2023-01-22T05:16:52.383Z,1.42
2023-01-22T05:19:20.040Z,1.50
2023-01-22T05:21:47.858Z,1.40
2023-01-22T05:24:18.480Z,1.40
2023-01-22T05:26:45.757Z,1.13
2023-01-22T05:29:16.130Z,1.10
2023-01-22T05:31:55.478Z,1.00
2023-01-22T05:34:39.046Z,1.10
2023-01-22T05:37:06.048Z,1.17
2023-01-22T05:39:34.891Z,1.00
2023-01-22T05:42:04.227Z,1.20
2023-01-22T05:44:33.362Z,1.70
2023-01-22T05:47:00.912Z,1.48
2023-01-22T05:49:45.859Z,0.95
2023-01-22T05:54:41.773Z,0.80
2023-01-22T05:57:08.633Z,1.02
2023-01-22T05:59:38.077Z,0.90
2023-01-22T06:02:07.774Z,1.13
2023-01-22T06:04:38.918Z,1.13
2023-01-22T06:07:16.725Z,1.00
2023-01-22T06:09:43.572Z,0.95
2023-01-22T06:12:10.315Z,1.05
2023-01-22T06:14:37.137Z,1.05
2023-01-22T06:17:05.722Z,1.10
2023-01-22T06:19:38.186Z,0.73
2023-01-22T06:22:05.926Z,1.27
2023-01-22T06:24:50.007Z,1.05
2023-01-22T06:27:18.161Z,1.17
2023-01-22T06:29:52.907Z,0.90
2023-01-22T06:32:20.568Z,0.80
2023-01-22T06:34:47.294Z,0.80
2023-01-22T06:37:14.847Z,0.80
2023-01-22T06:39:42.646Z,0.88
2023-01-22T06:42:21.119Z,0.95
2023-01-22T06:44:50.591Z,1.20
2023-01-22T06:47:18.470Z,1.13
2023-01-22T06:49:45.264Z,1.10
2023-01-22T06:52:11.982Z,1.10
2023-01-22T06:54:38.797Z,1.30
2023-01-22T06:57:05.637Z,0.75
2023-01-22T06:59:37.206Z,0.80
2023-01-22T07:02:04.123Z,0.70
2023-01-22T07:04:30.818Z,0.90
2023-01-22T07:06:57.586Z,1.00
2023-01-22T07:09:24.397Z,1.17
2023-01-22T07:11:51.203Z,0.95
2023-01-22T07:14:28.869Z,1.08
2023-01-22T07:17:02.608Z,0.77
2023-01-22T07:19:29.305Z,0.88
2023-01-22T07:21:56.061Z,0.77
2023-01-22T07:24:22.747Z,1.20
2023-01-22T07:26:49.518Z,1.33
2023-01-22T07:29:16.384Z,0.80
2023-01-22T07:31:43.363Z,0.95
2023-01-22T07:34:10.745Z,0.70
2023-01-22T07:36:37.494Z,0.93
2023-01-22T07:39:05.598Z,0.77
2023-01-22T07:41:32.773Z,1.10
2023-01-22T07:44:00.450Z,0.88
2023-01-22T07:46:27.925Z,0.80
2023-01-22T07:48:54.737Z,0.80
2023-01-22T07:51:21.631Z,1.00
2023-01-22T07:53:48.331Z,1.08
2023-01-22T07:56:15.287Z,1.05
2023-01-22T07:58:41.973Z,1.27
2023-01-22T08:01:10.191Z,0.98
2023-01-22T08:03:37.878Z,1.20
2023-01-22T08:06:09.478Z,0.90
2023-01-22T08:08:36.598Z,0.70
2023-01-22T08:11:03.654Z,0.95
2023-01-22T08:13:30.659Z,0.70
2023-01-22T08:15:57.511Z,1.05
2023-01-22T08:18:24.269Z,0.77
2023-01-22T08:20:51.330Z,0.85
2023-01-22T08:23:18.129Z,1.00
2023-01-22T08:25:44.838Z,0.40
2023-01-22T08:28:11.709Z,0.85
2023-01-22T08:30:46.161Z,0.80
2023-01-22T08:33:15.594Z,0.73
2023-01-22T08:35:42.356Z,1.02
2023-01-22T08:38:09.115Z,1.05
2023-01-22T08:40:37.921Z,0.90
2023-01-22T08:43:04.851Z,0.68
2023-01-22T08:45:31.649Z,1.00
2023-01-22T08:47:59.843Z,1.13
2023-01-22T08:50:28.782Z,1.45
2023-01-22T08:52:58.758Z,1.30
2023-01-22T08:55:27.741Z,1.05
2023-01-22T08:57:57.850Z,0.82
2023-01-22T09:00:25.413Z,1.30
2023-01-22T09:02:52.111Z,0.68
2023-01-22T09:05:19.351Z,0.75
2023-01-22T09:07:46.098Z,0.68
2023-01-22T09:10:12.909Z,0.50
2023-01-22T09:12:40.341Z,0.57
2023-01-22T09:15:08.086Z,0.80
2023-01-22T09:17:34.809Z,0.98
2023-01-22T09:20:01.494Z,0.90
2023-01-22T09:22:28.243Z,0.60
2023-01-22T09:24:55.258Z,0.93
2023-01-22T09:27:21.959Z,0.60
2023-01-22T09:29:48.925Z,0.82
2023-01-22T09:32:15.783Z,0.70
2023-01-22T09:34:42.509Z,0.82
2023-01-22T09:37:11.300Z,0.95
2023-01-22T09:39:37.982Z,0.77
2023-01-22T09:42:06.590Z,0.73
2023-01-22T09:44:40.265Z,2.33
2023-01-22T09:47:11.776Z,8.77
2023-01-22T09:49:49.020Z,8.13
2023-01-22T09:52:15.923Z,7.78
2023-01-22T09:54:43.803Z,6.50
2023-01-22T09:57:19.818Z,6.45
2023-01-22T09:59:58.200Z,6.10
2023-01-22T10:02:37.466Z,5.57
2023-01-22T10:05:17.460Z,5.78
2023-01-22T10:07:50.352Z,5.97
2023-01-22T10:10:20.000Z,6.22
2023-01-22T10:13:06.468Z,5.97
2023-01-22T10:15:33.619Z,6.03
2023-01-22T10:18:00.480Z,5.95
2023-01-22T10:20:27.827Z,6.43
2023-01-22T10:22:56.292Z,5.68
2023-01-22T10:25:22.990Z,5.13
2023-01-22T10:27:57.765Z,5.03
2023-01-22T10:30:25.903Z,4.95
2023-01-22T10:33:06.492Z,5.05
2023-01-22T10:35:43.958Z,4.32
2023-01-22T10:38:25.832Z,5.00
2023-01-22T10:40:58.314Z,4.63
2023-01-22T10:43:36.513Z,4.47
2023-01-22T10:46:16.184Z,4.05
2023-01-22T10:48:42.948Z,4.40
2023-01-22T10:51:21.332Z,3.92
2023-01-22T10:53:50.423Z,4.03
2023-01-22T10:56:35.869Z,3.85
2023-01-22T10:59:15.759Z,3.90
2023-01-22T11:01:45.461Z,3.70
2023-01-22T11:04:13.717Z,3.55
2023-01-22T11:06:44.774Z,3.38
2023-01-22T11:09:20.287Z,3.08
2023-01-22T11:11:56.599Z,3.10
2023-01-22T11:14:33.553Z,3.08
2023-01-22T11:17:22.440Z,3.20
2023-01-22T11:19:57.431Z,3.05
2023-01-22T11:22:29.136Z,3.03
2023-01-22T11:24:55.966Z,3.20
2023-01-22T11:27:36.554Z,2.92
2023-01-22T11:30:21.580Z,3.00
2023-01-22T11:33:17.309Z,2.55
2023-01-22T11:35:46.942Z,3.38
2023-01-22T11:38:20.036Z,2.92
2023-01-22T11:41:05.451Z,2.97
2023-01-22T11:43:55.586Z,3.47
2023-01-22T11:46:40.390Z,3.30
2023-01-22T11:49:24.285Z,2.67
2023-01-22T11:52:31.011Z,2.88
2023-01-22T11:55:07.398Z,2.70
2023-01-22T11:57:37.343Z,2.78
2023-01-22T12:00:30.523Z,2.75
2023-01-22T12:03:06.101Z,3.03
2023-01-22T12:05:57.578Z,2.50
2023-01-22T12:08:43.500Z,2.42
2023-01-22T12:11:28.897Z,2.17
2023-01-22T12:14:10.370Z,2.60
2023-01-22T12:17:02.121Z,2.60
2023-01-22T12:20:07.124Z,2.45
2023-01-22T12:22:40.067Z,2.72
2023-01-22T12:25:18.721Z,2.90
2023-01-22T12:28:00.086Z,2.78
2023-01-22T12:31:01.880Z,2.40
2023-01-22T12:33:39.018Z,2.67
2023-01-22T12:36:07.147Z,9.98
2023-01-22T12:39:01.041Z,13.95
2023-01-22T12:41:40.204Z,15.25
2023-01-22T12:47:08.105Z,14.57
2023-01-22T12:49:48.597Z,13.20
2023-01-22T12:52:30.098Z,12.88
2023-01-22T12:54:57.351Z,12.52
2023-01-22T12:57:27.151Z,15.07
2023-01-22T12:59:57.800Z,13.40
2023-01-22T13:02:24.667Z,13.30
2023-01-22T13:04:51.661Z,12.68
2023-01-22T13:07:34.335Z,11.52
2023-01-22T13:10:05.458Z,11.55
2023-01-22T13:12:46.913Z,12.00
2023-01-22T13:15:25.477Z,12.52
2023-01-22T13:18:12.575Z,10.85
2023-01-22T13:21:05.735Z,11.18
2023-01-22T13:23:36.209Z,11.48
2023-01-22T13:26:04.661Z,11.02
2023-01-22T13:28:31.704Z,9.40
2023-01-22T13:31:04.749Z,9.88
2023-01-22T13:33:31.889Z,6.70
2023-01-22T13:35:58.918Z,5.18
2023-01-22T13:38:28.958Z,5.15
2023-01-22T13:41:10.234Z,5.88
2023-01-22T13:43:38.121Z,5.53
2023-01-22T13:46:05.805Z,5.65
2023-01-22T13:48:32.611Z,5.15
2023-01-22T13:51:02.231Z,4.82
2023-01-22T13:53:35.241Z,5.05
2023-01-22T13:56:02.081Z,4.35
2023-01-22T13:58:46.744Z,4.15
2023-01-22T14:01:29.569Z,4.15
2023-01-22T14:04:04.913Z,4.60
2023-01-22T14:06:46.175Z,4.53
2023-01-22T14:09:13.237Z,4.07
2023-01-22T14:11:41.063Z,4.25
2023-01-22T14:14:18.690Z,3.92
2023-01-22T14:16:45.616Z,3.45
2023-01-22T14:19:12.879Z,4.43
2023-01-22T14:21:40.110Z,4.03
2023-01-22T14:24:07.345Z,4.07
2023-01-22T14:26:34.171Z,4.22
2023-01-22T14:29:00.891Z,4.28
2023-01-22T14:31:27.662Z,4.00
2023-01-22T14:33:54.421Z,3.83
2023-01-22T14:36:21.127Z,3.92
2023-01-22T14:38:49.516Z,4.05
2023-01-22T14:41:16.293Z,3.07
2023-01-22T14:43:43.011Z,3.20
2023-01-22T14:46:09.841Z,3.65
2023-01-22T14:48:36.680Z,3.70
2023-01-22T14:51:08.812Z,3.50
2023-01-22T14:53:35.832Z,3.00
2023-01-22T14:56:02.663Z,3.25
2023-01-22T14:58:29.409Z,3.58
2023-01-22T15:00:56.246Z,3.63
2023-01-22T15:03:22.958Z,2.90
2023-01-22T15:05:52.861Z,2.90
2023-01-22T15:08:19.682Z,3.15
2023-01-22T15:10:46.380Z,2.78
2023-01-22T15:13:13.076Z,3.20
2023-01-22T15:15:39.940Z,2.65
2023-01-22T15:18:06.638Z,3.10
2023-01-22T15:20:33.505Z,2.70
2023-01-22T15:23:00.357Z,2.65
2023-01-22T15:25:27.311Z,2.90
2023-01-22T15:27:54.009Z,2.67
2023-01-22T15:30:21.134Z,2.92
2023-01-22T15:32:48.181Z,2.55
2023-01-22T15:35:14.950Z,2.65
2023-01-22T15:37:41.654Z,2.58
2023-01-22T15:40:10.123Z,3.15
2023-01-22T15:42:36.862Z,2.93
2023-01-22T15:45:04.665Z,2.70
2023-01-22T15:47:31.597Z,2.33
2023-01-22T15:49:58.426Z,2.38
2023-01-22T15:52:25.177Z,2.50
2023-01-22T15:54:53.694Z,2.55
2023-01-22T15:57:20.868Z,2.05
2023-01-22T15:59:47.679Z,2.35
2023-01-22T16:02:14.511Z,2.80
2023-01-22T16:04:41.233Z,2.70
2023-01-22T16:07:07.936Z,2.38
2023-01-22T16:09:34.773Z,2.72
2023-01-22T16:12:01.526Z,2.30
2023-01-22T16:14:29.129Z,2.63
2023-01-22T16:16:55.998Z,2.50
2023-01-22T16:19:22.773Z,2.35
2023-01-22T16:21:49.473Z,2.70
2023-01-22T16:24:16.313Z,2.50
2023-01-22T16:26:43.030Z,2.10
2023-01-22T16:29:10.499Z,2.17
2023-01-22T16:31:37.593Z,1.98
2023-01-22T16:34:13.544Z,2.22
2023-01-22T16:36:40.964Z,2.70
2023-01-22T16:39:08.601Z,2.35
2023-01-22T16:41:36.491Z,2.75
2023-01-22T16:44:12.088Z,2.08
2023-01-22T16:46:41.224Z,2.03
2023-01-22T16:49:19.636Z,2.22
2023-01-22T16:51:48.746Z,2.40
2023-01-22T16:54:18.886Z,2.50
2023-01-22T16:56:45.627Z,2.05
2023-01-22T16:59:12.397Z,2.10
2023-01-22T17:01:41.302Z,2.30
2023-01-22T17:04:08.388Z,2.03
2023-01-22T17:06:41.364Z,1.95
2023-01-22T17:09:12.091Z,2.28
2023-01-22T17:11:38.957Z,2.20
2023-01-22T17:14:07.883Z,2.00
2023-01-22T17:16:34.797Z,2.10
2023-01-22T17:19:03.055Z,3.10
2023-01-22T17:21:30.222Z,2.40
2023-01-22T17:23:57.231Z,2.85
2023-01-22T17:26:23.975Z,2.55
2023-01-22T17:28:50.698Z,2.63
2023-01-22T17:31:19.039Z,2.58
2023-01-22T17:33:46.571Z,2.47
2023-01-22T17:36:15.105Z,2.17
2023-01-22T17:38:42.367Z,2.10
2023-01-22T17:41:16.062Z,2.17
2023-01-22T17:43:44.951Z,2.10
2023-01-22T17:46:17.212Z,2.55
2023-01-22T17:48:44.833Z,2.03
2023-01-22T17:51:15.257Z,2.08
2023-01-22T17:53:43.466Z,1.83
2023-01-22T17:56:12.610Z,2.25
2023-01-22T17:58:42.635Z,1.88
2023-01-22T18:01:10.932Z,2.40
2023-01-22T18:03:37.983Z,2.42
2023-01-22T18:06:05.389Z,1.58
2023-01-22T18:08:33.250Z,2.17
2023-01-22T18:11:24.119Z,2.05
2023-01-22T18:13:51.042Z,2.10
2023-01-22T18:16:19.132Z,2.20
2023-01-22T18:18:45.991Z,2.03
2023-01-22T18:21:17.043Z,2.70
2023-01-22T18:23:44.384Z,2.80
2023-01-22T18:26:11.229Z,2.20
2023-01-22T18:28:38.200Z,2.45
2023-01-22T18:31:16.573Z,2.38
2023-01-22T18:33:48.166Z,2.03
2023-01-22T18:36:19.120Z,1.95
2023-01-22T18:38:45.909Z,2.08
2023-01-22T18:41:24.084Z,2.13
2023-01-22T18:43:53.767Z,1.90
2023-01-22T18:46:21.756Z,2.38
2023-01-22T18:48:53.488Z,2.13
2023-01-22T18:51:20.617Z,1.98
2023-01-22T18:53:47.424Z,2.90
2023-01-22T18:56:14.216Z,1.92
2023-01-22T18:58:43.582Z,2.00
2023-01-22T19:01:30.104Z,1.85
2023-01-22T19:03:59.074Z,1.95
2023-01-22T19:06:29.743Z,1.67
2023-01-22T19:08:59.323Z,2.00
2023-01-22T19:11:26.507Z,2.10
2023-01-22T19:13:54.961Z,2.22
2023-01-22T19:16:22.547Z,1.97
2023-01-22T19:18:57.236Z,2.03
2023-01-22T19:21:25.583Z,1.80
2023-01-22T19:23:54.723Z,1.75
2023-01-22T19:26:25.955Z,1.75
2023-01-22T19:28:58.677Z,2.03
2023-01-22T19:31:28.133Z,1.73
2023-01-22T19:33:56.277Z,2.22
2023-01-22T19:36:26.153Z,2.13
2023-01-22T19:38:53.062Z,1.60
2023-01-22T19:41:20.020Z,1.80
2023-01-22T19:43:47.979Z,1.80
2023-01-22T19:46:14.881Z,2.08
2023-01-22T19:48:41.878Z,1.80
2023-01-22T19:51:11.850Z,1.70
2023-01-22T19:53:39.565Z,2.13
2023-01-22T19:56:17.985Z,1.90
2023-01-22T19:58:44.958Z,1.77
2023-01-22T20:01:12.220Z,2.05
2023-01-22T20:03:39.367Z,1.90
2023-01-22T20:06:07.535Z,2.28
2023-01-22T20:08:38.810Z,2.03
2023-01-22T20:11:07.025Z,1.80
2023-01-22T20:13:33.879Z,1.88
2023-01-22T20:16:01.041Z,1.73
2023-01-22T20:18:28.656Z,1.95
2023-01-22T20:20:58.317Z,2.10
2023-01-22T20:23:26.131Z,1.73
2023-01-22T20:25:53.387Z,1.67
2023-01-22T20:28:20.286Z,1.70
2023-01-22T20:30:58.264Z,1.63
2023-01-22T20:33:25.438Z,1.98
2023-01-22T20:35:56.856Z,1.95
2023-01-22T20:38:24.208Z,1.70
2023-01-22T20:40:51.301Z,1.90
2023-01-22T20:43:19.094Z,1.60
2023-01-22T20:45:56.324Z,1.60
2023-01-22T20:48:23.141Z,1.80
2023-01-22T20:50:49.836Z,1.83
2023-01-22T20:53:16.566Z,1.40
2023-01-22T20:55:44.194Z,2.00
2023-01-22T20:58:10.873Z,1.80
2023-01-22T21:00:37.744Z,2.03
2023-01-22T21:03:04.627Z,1.83
2023-01-22T21:05:31.552Z,1.85
2023-01-22T21:07:58.247Z,1.80
2023-01-22T21:10:25.020Z,1.67
2023-01-22T21:12:51.763Z,1.73
2023-01-22T21:15:18.491Z,1.63
2023-01-22T21:17:45.252Z,1.70
2023-01-22T21:20:12.300Z,1.80
2023-01-22T21:22:39.057Z,1.90
2023-01-22T21:25:06.050Z,1.85
2023-01-22T21:27:32.727Z,2.13
2023-01-22T21:29:59.475Z,1.92
2023-01-22T21:32:26.270Z,1.60
2023-01-22T21:34:52.969Z,1.45
2023-01-22T21:37:19.770Z,1.45
2023-01-22T21:39:46.553Z,1.63
2023-01-22T21:42:32.157Z,1.63
2023-01-22T21:45:17.537Z,2.15
2023-01-22T21:47:45.721Z,1.80
2023-01-22T21:50:12.941Z,1.88
2023-01-22T21:52:41.646Z,1.90
2023-01-22T21:55:09.885Z,2.00
2023-01-22T21:57:37.831Z,1.65
2023-01-22T22:00:04.917Z,2.05
2023-01-22T22:02:32.114Z,1.40
2023-01-22T22:04:59.848Z,1.73
2023-01-22T22:07:26.634Z,1.60
2023-01-22T22:09:53.389Z,1.90
2023-01-22T22:12:20.089Z,2.15
2023-01-22T22:14:46.782Z,2.08
2023-01-22T22:17:13.762Z,1.77
2023-01-22T22:19:40.585Z,2.00
2023-01-22T22:22:07.294Z,1.67
2023-01-22T22:24:34.030Z,2.33
2023-01-22T22:27:00.736Z,1.75
2023-01-22T22:29:27.439Z,1.83
2023-01-22T22:31:54.183Z,1.77
2023-01-22T22:34:21.064Z,1.90
2023-01-22T22:36:47.812Z,2.08
2023-01-22T22:39:14.655Z,1.50
2023-01-22T22:41:41.365Z,1.92
2023-01-22T22:44:08.496Z,2.00
2023-01-22T22:46:37.116Z,1.75
2023-01-22T22:49:04.940Z,1.60
2023-01-22T22:51:37.535Z,1.92
2023-01-22T22:54:16.606Z,1.80
2023-01-22T22:56:47.347Z,2.05
2023-01-22T22:59:14.662Z,1.90
2023-01-22T23:01:41.513Z,2.03
2023-01-22T23:04:08.273Z,1.70
2023-01-22T23:06:36.449Z,1.60
2023-01-22T23:09:11.010Z,1.92
2023-01-22T23:11:38.124Z,1.80
2023-01-22T23:14:05.159Z,2.00
2023-01-22T23:16:37.596Z,1.75
2023-01-22T23:19:07.631Z,1.85
2023-01-22T23:21:36.274Z,1.85
2023-01-22T23:24:03.498Z,2.00
2023-01-22T23:26:30.845Z,2.20
2023-01-22T23:29:00.619Z,1.95
2023-01-22T23:31:29.329Z,1.77
2023-01-22T23:33:56.814Z,1.60
2023-01-22T23:36:25.980Z,1.63
2023-01-22T23:38:53.366Z,1.80
2023-01-22T23:41:20.879Z,1.80
2023-01-22T23:43:47.785Z,1.80
2023-01-22T23:46:22.981Z,1.70
2023-01-22T23:48:50.080Z,1.73
2023-01-22T23:51:17.595Z,2.00
2023-01-22T23:53:47.279Z,1.90
2023-01-22T23:56:14.994Z,2.13
2023-01-22T23:58:41.950Z,2.17
